Time;durP1;ratioP1;P1;durP2;ratioP2;P2;SDS_P1;SDS_P2;PMS_P1;PMS_P2;Temp;Humidity;BMP_temperature;BMP_pressure;BME280_temperature;BME280_humidity;BME280_pressure;Samples;Min_cycle;Max_cycle;Signal;HPM_P1;HPM_P2
2021/01/04 00:01:00;;;;;;;16.70;10.13;;;;;;;10.82;64.51;93822.63;5068450;28;20135;-75
2021/01/04 00:03:32;;;;;;;12.80;9.77;;;;;;;10.82;64.63;93812.06;5066396;28;20043;-76
2021/01/04 00:06:16;;;;;;;12.43;10.15;;;;;;;10.90;64.63;93812.50;5052943;28;20040;-76
2021/01/04 00:09:43;;;;;;;16.52;10.32;;;;;;;10.94;64.62;93810.84;5062642;28;20903;-75
2021/01/04 00:12:58;;;;;;;19.98;10.95;;;;;;;10.88;64.75;93820.69;4970753;28;20066;-76
2021/01/04 00:15:50;;;;;;;18.83;13.18;;;;;;;10.85;64.69;93822.03;4895806;28;20047;-76
2021/01/04 00:18:53;;;;;;;30.92;21.13;;;;;;;10.74;64.42;93820.66;4985832;28;20112;-76
2021/01/04 00:21:27;;;;;;;30.17;20.52;;;;;;;10.71;63.87;93820.44;5048331;28;20117;-76
2021/01/04 00:23:58;;;;;;;25.73;18.00;;;;;;;10.63;63.87;93824.53;5070952;28;20044;-76
2021/01/04 00:26:35;;;;;;;24.63;18.15;;;;;;;10.50;64.28;93805.97;5065930;28;20706;-76
2021/01/04 00:29:01;;;;;;;23.42;16.88;;;;;;;10.50;64.44;93812.06;5065378;28;20024;-76
2021/01/04 00:31:41;;;;;;;25.35;17.60;;;;;;;10.45;64.67;93811.34;5068918;28;20043;-76
2021/01/04 00:34:21;;;;;;;23.40;15.70;;;;;;;10.40;64.51;93805.06;5061227;28;20044;-76
2021/01/04 00:37:11;;;;;;;23.02;15.95;;;;;;;10.40;64.48;93805.06;5062014;28;20655;-76
2021/01/04 00:39:52;;;;;;;22.73;16.30;;;;;;;10.39;64.40;93800.06;5067494;28;20052;-76
2021/01/04 00:42:44;;;;;;;20.27;15.30;;;;;;;10.36;64.21;93788.19;5064007;28;20040;-76
2021/01/04 00:45:21;;;;;;;21.17;15.55;;;;;;;10.27;64.27;93786.47;5070039;28;20043;-76
2021/01/04 00:47:53;;;;;;;21.98;15.68;;;;;;;10.20;64.03;93778.94;5049525;28;20056;-76
2021/01/04 00:50:33;;;;;;;20.90;16.77;;;;;;;10.22;64.08;93783.91;5066380;28;20071;-76
2021/01/04 00:53:17;;;;;;;22.42;15.40;;;;;;;10.22;64.58;93786.56;5049909;28;20535;-76
2021/01/04 00:56:16;;;;;;;17.33;14.65;;;;;;;10.17;64.86;93789.25;5067105;28;20012;-76
2021/01/04 00:59:02;;;;;;;20.38;13.85;;;;;;;10.16;65.42;93787.72;5051581;28;20176;-76
2021/01/04 01:01:40;;;;;;;19.98;14.48;;;;;;;10.11;65.76;93796.47;5073167;28;20051;-76
2021/01/04 01:04:29;;;;;;;22.42;15.68;;;;;;;10.13;65.37;93788.25;5070206;28;20036;-76
2021/01/04 01:07:16;;;;;;;22.27;15.57;;;;;;;10.17;65.90;93783.97;5069815;28;20044;-76
2021/01/04 01:09:48;;;;;;;19.77;14.30;;;;;;;10.20;65.57;93780.78;5069514;28;20630;-76
2021/01/04 01:12:19;;;;;;;18.65;14.20;;;;;;;10.25;65.68;93781.50;5066994;28;20028;-76
2021/01/04 01:14:57;;;;;;;18.30;13.73;;;;;;;10.26;65.48;93783.06;5056961;28;20120;-76
2021/01/04 01:17:56;;;;;;;19.38;13.27;;;;;;;10.30;65.65;93778.00;5051908;28;20048;-76
2021/01/04 01:20:22;;;;;;;20.17;14.13;;;;;;;10.22;65.91;93771.50;5056568;28;20093;-76
2021/01/04 01:22:48;;;;;;;22.42;15.13;;;;;;;10.26;66.03;93774.38;5066911;28;20028;-76
2021/01/04 01:25:20;;;;;;;18.60;13.65;;;;;;;10.31;66.03;93767.13;5055533;28;20211;-76
2021/01/04 01:28:17;;;;;;;16.85;12.13;;;;;;;10.36;65.73;93768.94;5051707;28;20536;-76
2021/01/04 01:31:16;;;;;;;16.58;13.02;;;;;;;10.33;65.99;93770.28;5042902;28;20067;-76
2021/01/04 01:34:24;;;;;;;17.00;12.55;;;;;;;10.31;66.04;93759.22;5049153;28;20059;-76
2021/01/04 01:37:22;;;;;;;15.23;11.85;;;;;;;10.38;66.04;93761.50;5049444;28;20048;-76
2021/01/04 01:40:03;;;;;;;16.52;11.35;;;;;;;10.47;65.72;93757.13;5030357;28;20094;-76
2021/01/04 01:42:58;;;;;;;17.60;12.23;;;;;;;10.44;65.76;93747.16;5047308;28;20519;-76
2021/01/04 01:45:40;;;;;;;15.57;11.40;;;;;;;10.40;66.29;93748.78;5046530;28;20049;-76
2021/01/04 01:48:37;;;;;;;13.10;10.02;;;;;;;10.44;66.38;93760.34;5053213;28;20048;-76
2021/01/04 01:51:17;;;;;;;15.25;10.40;;;;;;;10.45;66.31;93761.94;5051364;28;20106;-76
2021/01/04 01:53:55;;;;;;;14.80;10.70;;;;;;;10.49;66.66;93772.69;5051266;28;20056;-76
2021/01/04 01:56:26;;;;;;;16.42;13.25;;;;;;;10.49;66.76;93781.41;5053456;28;20047;-76
2021/01/04 01:59:19;;;;;;;11.65;9.90;;;;;;;10.38;67.31;93774.69;5046734;28;20024;-76
2021/01/04 02:01:51;;;;;;;12.23;9.63;;;;;;;10.37;67.58;93788.97;5054301;28;20024;-76
2021/01/04 02:04:28;;;;;;;12.82;8.38;;;;;;;10.35;67.32;93799.84;5049086;28;20524;-76
2021/01/04 02:07:06;;;;;;;16.15;8.93;;;;;;;10.39;67.77;93789.50;5049900;28;20041;-76
2021/01/04 02:09:49;;;;;;;9.70;7.88;;;;;;;10.48;67.42;93784.34;5050602;28;20194;-76
2021/01/04 02:12:45;;;;;;;12.65;7.70;;;;;;;10.53;67.52;93782.41;5051715;28;20107;-76
2021/01/04 02:15:16;;;;;;;10.35;7.63;;;;;;;10.62;67.44;93779.88;5060054;28;20139;-76
2021/01/04 02:18:06;;;;;;;12.48;8.93;;;;;;;10.63;67.83;93776.97;5049793;28;20439;-76
2021/01/04 02:20:59;;;;;;;10.52;7.28;;;;;;;10.62;68.38;93767.44;5031572;28;20036;-76
2021/01/04 02:23:34;;;;;;;14.00;9.15;;;;;;;10.66;68.63;93760.50;5042313;28;20041;-76
2021/01/04 02:26:09;;;;;;;13.30;7.50;;;;;;;10.67;68.80;93740.94;5028468;28;20021;-76
2021/01/04 02:28:38;;;;;;;;;;;;;;;10.76;68.71;93755.06;5033878;28;20045;-76
2021/01/04 02:31:03;;;;;;;9.82;7.25;;;;;;;10.64;69.66;93773.25;5030579;28;19966;-77
2021/01/04 02:33:29;;;;;;;9.90;6.82;;;;;;;10.64;69.75;93751.31;5027666;28;20041;-77
2021/01/04 02:35:55;;;;;;;9.60;6.60;;;;;;;10.70;69.55;93735.06;5032502;28;20738;-76
2021/01/04 02:38:25;;;;;;;9.02;7.05;;;;;;;10.73;69.39;93750.38;5027473;28;20133;-76
2021/01/04 02:40:51;;;;;;;9.23;6.82;;;;;;;10.73;69.51;93754.88;5026135;28;20797;-76
2021/01/04 02:43:19;;;;;;;13.00;7.32;;;;;;;10.73;69.29;93744.28;5054046;28;20058;-76
2021/01/04 02:45:44;;;;;;;11.02;7.72;;;;;;;10.78;69.43;93737.06;5033624;28;20045;-76
2021/01/04 02:48:21;;;;;;;9.70;7.40;;;;;;;10.84;69.04;93730.63;5050204;28;20068;-76
2021/01/04 02:51:12;;;;;;;9.50;7.28;;;;;;;10.87;68.87;93729.25;5033457;28;20036;-76
2021/01/04 02:53:44;;;;;;;10.80;7.18;;;;;;;10.85;69.15;93734.81;5052115;28;20385;-77
2021/01/04 02:56:37;;;;;;;9.10;6.70;;;;;;;10.86;69.17;93749.59;5046837;28;20041;-76
2021/01/04 02:59:20;;;;;;;10.52;7.60;;;;;;;10.85;69.41;93753.31;5034338;28;20029;-77
2021/01/04 03:02:10;;;;;;;10.63;7.32;;;;;;;10.77;69.82;93754.00;5050283;28;20100;-76
2021/01/04 03:04:37;;;;;;;9.02;6.68;;;;;;;10.80;69.68;93745.47;5056361;28;20048;-77
2021/01/04 03:07:19;;;;;;;10.00;6.75;;;;;;;10.86;69.80;93749.59;5049953;28;20044;-77
2021/01/04 03:09:49;;;;;;;11.20;7.80;;;;;;;10.91;69.70;93745.28;5048409;28;20094;-76
2021/01/04 03:12:25;;;;;;;12.25;7.90;;;;;;;10.90;69.87;93749.03;5047976;28;20036;-77
2021/01/04 03:15:00;;;;;;;10.35;7.60;;;;;;;10.89;70.16;93747.47;5048857;28;20041;-77
2021/01/04 03:17:47;;;;;;;;;;;;;;;10.91;70.35;93747.94;5049364;28;20485;-77
2021/01/04 03:20:16;;;;;;;;;;;;;;;10.89;70.25;93752.75;5051210;28;19920;-77
2021/01/04 03:22:45;;;;;;;10.43;6.05;;;;;;;10.77;70.57;93746.06;5049411;28;20433;-77
2021/01/04 03:25:47;;;;;;;9.10;6.93;;;;;;;10.86;70.52;93743.53;5046761;28;20075;-77
2021/01/04 03:28:23;;;;;;;10.18;7.57;;;;;;;10.83;70.50;93718.47;5048462;28;20110;-77
2021/01/04 03:30:49;;;;;;;15.40;9.95;;;;;;;10.85;70.38;93711.00;5047848;28;20052;-77
2021/01/04 03:33:15;;;;;;;12.38;9.55;;;;;;;10.91;70.12;93703.78;5049029;28;20133;-77
2021/01/04 03:35:41;;;;;;;12.63;9.38;;;;;;;10.93;70.01;93699.00;5047017;28;20060;-77
2021/01/04 03:38:06;;;;;;;14.68;9.15;;;;;;;10.97;69.69;93693.91;5048271;28;20082;-77
2021/01/04 03:40:32;;;;;;;10.25;7.80;;;;;;;11.00;69.47;93696.72;5053676;28;20043;-77
2021/01/04 03:42:57;;;;;;;12.15;8.82;;;;;;;10.97;69.64;93683.31;5047484;28;20052;-77
2021/01/04 03:45:23;;;;;;;11.27;8.60;;;;;;;11.00;69.40;93682.72;5049464;28;20044;-77
2021/01/04 03:47:48;;;;;;;11.48;7.50;;;;;;;10.98;69.27;93695.47;5049071;28;20479;-77
2021/01/04 03:50:15;;;;;;;14.82;9.00;;;;;;;11.00;69.06;93698.59;5046829;28;20501;-77
2021/01/04 03:52:41;;;;;;;14.52;8.38;;;;;;;10.93;69.51;93692.94;5049209;28;20024;-77
2021/01/04 03:55:07;;;;;;;10.88;8.40;;;;;;;11.00;69.46;93682.72;5056505;28;20063;-77
2021/01/04 03:57:33;;;;;;;11.68;8.20;;;;;;;11.00;69.37;93688.81;5050033;28;20036;-77
2021/01/04 03:59:58;;;;;;;13.85;9.07;;;;;;;10.94;69.54;93674.13;5030560;28;20477;-77
2021/01/04 04:02:23;;;;;;;16.85;12.35;;;;;;;10.97;69.58;93670.09;5047392;28;20036;-77
2021/01/04 04:04:49;;;;;;;18.50;14.60;;;;;;;11.02;69.44;93681.38;5046704;28;20020;-77
2021/01/04 04:07:15;;;;;;;23.95;15.57;;;;;;;10.98;69.06;93677.75;5051042;28;20511;-77
2021/01/04 04:09:41;;;;;;;25.60;16.50;;;;;;;11.01;69.18;93676.38;5047976;28;20075;-77
2021/01/04 04:12:06;;;;;;;27.70;14.65;;;;;;;11.00;68.99;93656.28;5048300;28;20052;-77
2021/01/04 04:14:32;;;;;;;26.98;14.45;;;;;;;11.02;68.82;93657.56;5047535;28;20869;-77
2021/01/04 04:16:57;;;;;;;21.77;15.50;;;;;;;11.00;68.69;93648.34;5047222;28;20593;-77
2021/01/04 04:19:23;;;;;;;37.40;23.13;;;;;;;11.01;68.95;93644.63;5051961;28;20171;-77
2021/01/04 04:21:52;;;;;;;28.02;16.25;;;;;;;10.94;69.06;93631.84;5046768;28;20059;-77
2021/01/04 04:24:19;;;;;;;25.65;15.57;;;;;;;10.93;68.93;93632.13;5032213;28;20036;-77
2021/01/04 04:26:44;;;;;;;21.92;13.50;;;;;;;10.92;69.10;93641.13;5045768;28;20513;-77
2021/01/04 04:29:10;;;;;;;24.02;17.02;;;;;;;10.94;69.18;93645.06;5047187;28;20053;-77
2021/01/04 04:31:45;;;;;;;26.15;15.88;;;;;;;10.98;69.48;93646.03;5049167;28;20044;-77
2021/01/04 04:34:11;;;;;;;22.58;15.43;;;;;;;11.02;69.16;93646.22;5047645;28;20037;-77
2021/01/04 04:36:40;;;;;;;24.38;16.58;;;;;;;10.94;69.42;93642.41;5052154;28;20502;-77
2021/01/04 04:39:06;;;;;;;26.67;16.42;;;;;;;10.96;69.42;93644.75;5053393;28;20044;-77
2021/01/04 04:41:36;;;;;;;33.10;20.83;;;;;;;10.93;69.95;93635.53;5050503;28;20054;-77
2021/01/04 04:44:19;;;;;;;23.45;15.88;;;;;;;10.98;69.83;93634.66;5051640;28;20024;-77
2021/01/04 04:46:58;;;;;;;23.88;15.20;;;;;;;10.93;69.73;93632.13;5055053;28;20032;-77
2021/01/04 04:49:32;;;;;;;24.13;17.02;;;;;;;10.95;69.60;93630.72;5052881;28;20028;-77
2021/01/04 04:52:16;;;;;;;34.13;22.63;;;;;;;10.96;70.30;93639.44;5048670;28;20037;-77
2021/01/04 04:55:03;;;;;;;27.63;20.70;;;;;;;10.91;70.32;93629.75;5037852;28;20081;-77
2021/01/04 04:57:36;;;;;;;24.17;15.18;;;;;;;10.98;69.78;93637.31;5051020;28;21238;-77
2021/01/04 05:00:11;;;;;;;22.17;16.15;;;;;;;10.98;69.88;93639.94;5052008;28;20051;-77
2021/01/04 05:02:56;;;;;;;25.75;18.63;;;;;;;10.98;69.68;93632.81;5033859;28;20037;-77
2021/01/04 05:05:29;;;;;;;;;;;;;;;10.93;69.68;93626.81;5053349;28;20052;-77
2021/01/04 05:08:20;;;;;;;30.20;17.88;;;;;;;10.83;70.04;93617.22;5049844;28;20781;-77
2021/01/04 05:10:50;;;;;;;25.30;16.77;;;;;;;10.82;70.19;93637.59;5054814;28;20396;-76
2021/01/04 05:13:24;;;;;;;26.17;18.67;;;;;;;10.82;70.53;93632.31;5047743;28;20076;-77
2021/01/04 05:15:55;;;;;;;25.60;16.73;;;;;;;10.83;70.24;93633.88;5050156;28;20040;-77
2021/01/04 05:18:52;;;;;;;19.95;15.23;;;;;;;10.83;70.59;93631.25;5053419;28;20513;-76
2021/01/04 05:21:42;;;;;;;26.45;15.60;;;;;;;10.79;70.81;93619.69;5054710;28;20477;-76
2021/01/04 05:24:24;;;;;;;22.20;14.10;;;;;;;10.78;70.80;93618.13;5054280;28;20066;-77
2021/01/04 05:27:01;;;;;;;24.77;16.55;;;;;;;10.74;70.99;93613.72;5036493;28;20059;-77
2021/01/04 05:29:39;;;;;;;22.35;15.95;;;;;;;10.70;71.35;93595.00;5035400;28;20436;-77
2021/01/04 05:32:38;;;;;;;20.55;14.65;;;;;;;10.64;71.95;93576.91;5049080;28;20544;-77
2021/01/04 05:35:08;;;;;;;20.83;15.35;;;;;;;10.57;71.95;93574.66;5051114;28;21180;-76
2021/01/04 05:37:54;;;;;;;27.65;16.95;;;;;;;10.48;72.51;93573.75;5052003;28;20062;-77
2021/01/04 05:40:31;;;;;;;25.50;17.67;;;;;;;10.39;72.82;93570.25;5053850;28;20123;-76
2021/01/04 05:43:18;;;;;;;26.95;20.35;;;;;;;10.34;73.26;93572.97;5035082;28;20037;-77
2021/01/04 05:46:00;;;;;;;24.35;17.25;;;;;;;10.26;73.60;93566.50;5047780;28;20088;-76
2021/01/04 05:48:58;;;;;;;26.00;17.30;;;;;;;10.18;73.96;93555.81;5049259;28;20135;-76
2021/01/04 05:51:33;;;;;;;31.25;18.05;;;;;;;10.16;74.34;93547.44;5049447;28;20570;-76
2021/01/04 05:53:59;;;;;;;;;;;;;;;10.13;74.42;93555.88;5052225;28;20390;-76
2021/01/04 05:56:27;;;;;;;24.70;18.27;;;;;;;10.09;74.66;93549.63;5048914;28;19928;-77
2021/01/04 05:59:06;;;;;;;24.48;18.00;;;;;;;10.09;74.84;93557.53;5049826;28;20392;-76
2021/01/04 06:01:31;;;;;;;20.73;16.52;;;;;;;10.13;74.89;93553.25;5051352;28;20032;-75
2021/01/04 06:04:01;;;;;;;21.95;16.92;;;;;;;10.11;74.92;93547.47;5049713;28;20067;-76
2021/01/04 06:06:53;;;;;;;23.25;16.77;;;;;;;10.17;74.98;93562.16;5050601;28;20537;-76
2021/01/04 06:09:20;;;;;;;23.88;18.63;;;;;;;10.29;74.48;93559.84;5050112;28;20037;-76
2021/01/04 06:11:49;;;;;;;21.92;18.58;;;;;;;10.31;74.54;93563.00;5047961;28;20040;-76
2021/01/04 06:14:14;;;;;;;23.63;16.88;;;;;;;10.40;74.10;93561.25;5046343;28;20041;-77
2021/01/04 06:16:44;;;;;;;23.17;17.13;;;;;;;10.49;73.77;93567.41;5052982;28;20029;-76
2021/01/04 06:19:14;;;;;;;27.38;20.38;;;;;;;10.58;73.54;93565.66;5051617;28;20190;-76
2021/01/04 06:21:49;;;;;;;26.23;18.77;;;;;;;10.64;73.46;93572.41;5051116;28;20040;-76
2021/01/04 06:24:25;;;;;;;23.45;15.57;;;;;;;10.66;73.11;93561.53;5051908;28;20113;-77
2021/01/04 06:26:52;;;;;;;19.83;15.50;;;;;;;10.67;73.12;93540.09;5051902;28;20055;-76
2021/01/04 06:29:37;;;;;;;21.75;16.50;;;;;;;10.78;72.85;93546.75;5034295;28;20557;-76
2021/01/04 06:32:05;;;;;;;19.52;13.48;;;;;;;10.86;72.57;93553.97;5050251;28;20528;-76
2021/01/04 06:34:38;;;;;;;17.73;13.15;;;;;;;10.94;72.46;93538.50;5049346;28;20128;-77
2021/01/04 06:37:15;;;;;;;19.88;13.95;;;;;;;10.97;72.35;93533.41;5047903;28;20489;-76
2021/01/04 06:39:41;;;;;;;20.40;14.15;;;;;;;11.02;72.18;93537.81;5048317;28;20041;-77
2021/01/04 06:42:10;;;;;;;21.50;14.30;;;;;;;10.95;72.27;93530.25;5048286;28;20038;-76
2021/01/04 06:44:36;;;;;;;23.10;14.50;;;;;;;10.94;72.29;93518.16;5049106;28;20048;-76
2021/01/04 06:47:16;;;;;;;22.60;16.98;;;;;;;11.04;72.36;93535.66;5045521;28;20649;-76
2021/01/04 06:50:32;;;;;;;23.15;15.93;;;;;;;11.03;72.58;93512.94;5051213;28;20028;-76
2021/01/04 06:53:25;;;;;;;24.58;18.13;;;;;;;11.16;72.22;93526.13;4999536;28;20049;-76
2021/01/04 06:56:18;;;;;;;20.92;16.95;;;;;;;11.23;71.88;93525.72;5050998;28;20020;-77
2021/01/04 06:58:55;;;;;;;23.95;16.60;;;;;;;11.01;72.78;93512.44;5050147;28;20025;-76
2021/01/04 07:01:26;;;;;;;24.45;18.98;;;;;;;11.08;72.73;93523.41;5050057;28;20425;-77
2021/01/04 07:04:24;;;;;;;22.52;17.52;;;;;;;11.11;72.84;93522.78;5043233;28;20055;-76
2021/01/04 07:07:41;;;;;;;26.13;17.20;;;;;;;11.13;73.00;93518.00;5043209;28;20051;-76
2021/01/04 07:10:13;;;;;;;20.98;16.90;;;;;;;11.07;73.18;93521.84;4948553;28;20039;-76
2021/01/04 07:13:11;;;;;;;21.88;15.48;;;;;;;11.06;73.12;93509.69;5036762;28;20039;-78
2021/01/04 07:16:02;;;;;;;20.42;17.95;;;;;;;11.03;73.41;93510.28;5015861;28;20049;-76
2021/01/04 07:19:26;;;;;;;23.88;16.67;;;;;;;10.96;73.70;93502.75;5022885;28;20047;-76
2021/01/04 07:21:58;;;;;;;22.70;16.70;;;;;;;10.97;74.08;93495.59;5013275;28;20416;-76
2021/01/04 07:24:32;;;;;;;21.50;16.67;;;;;;;10.95;73.86;93484.53;5046696;28;20032;-77
2021/01/04 07:27:36;;;;;;;23.60;17.95;;;;;;;10.95;73.96;93481.88;5031098;28;20493;-76
2021/01/04 07:30:19;;;;;;;25.27;17.33;;;;;;;10.93;74.00;93481.44;5042969;28;20976;-76
2021/01/04 07:32:52;;;;;;;20.73;15.70;;;;;;;10.91;74.25;93470.34;5030752;28;20057;-76
2021/01/04 07:35:31;;;;;;;19.02;11.80;;;;;;;10.83;74.14;93472.63;5044970;28;20048;-76
2021/01/04 07:38:04;;;;;;;18.48;12.82;;;;;;;10.84;74.44;93482.13;5055404;28;20021;-76
2021/01/04 07:40:53;;;;;;;19.95;15.10;;;;;;;10.89;74.63;93467.25;5050877;28;20124;-75
2021/01/04 07:43:27;;;;;;;21.88;17.00;;;;;;;10.89;74.74;93461.97;5044490;28;20054;-76
2021/01/04 07:46:14;;;;;;;16.45;13.25;;;;;;;10.95;74.19;93452.81;5030028;28;20084;-76
2021/01/04 07:48:58;;;;;;;15.10;10.85;;;;;;;10.98;74.06;93446.94;5033464;28;20060;-77
2021/01/04 07:51:36;;;;;;;12.95;10.93;;;;;;;10.88;73.80;93429.44;5031848;28;20028;-77
2021/01/04 07:54:27;;;;;;;18.25;10.65;;;;;;;11.02;74.22;93446.03;5048555;28;20049;-76
2021/01/04 07:57:43;;;;;;;16.85;10.20;;;;;;;11.10;74.01;93450.59;5049126;28;20515;-75
2021/01/04 08:00:23;;;;;;;16.30;10.10;;;;;;;11.13;74.09;93442.09;5044871;28;20032;-77
2021/01/04 08:02:48;;;;;;;14.27;9.27;;;;;;;11.11;73.85;93427.59;5032920;28;20045;-76
2021/01/04 08:05:22;;;;;;;16.75;10.90;;;;;;;11.06;74.12;93423.22;5046145;28;21144;-76
2021/01/04 08:08:01;;;;;;;15.55;9.48;;;;;;;11.11;74.25;93417.00;5047466;28;20032;-77
2021/01/04 08:11:00;;;;;;;13.13;9.07;;;;;;;11.14;74.09;93425.13;5046749;28;20040;-77
2021/01/04 08:14:10;;;;;;;12.57;8.07;;;;;;;11.12;73.97;93408.78;5033220;28;20052;-76
2021/01/04 08:16:49;;;;;;;11.27;8.23;;;;;;;11.13;73.99;93426.22;5009413;28;20052;-76
2021/01/04 08:19:16;;;;;;;9.77;7.68;;;;;;;11.14;74.30;93421.72;5045600;28;20543;-76
2021/01/04 08:22:07;;;;;;;9.18;7.90;;;;;;;11.22;73.92;93418.34;5044695;28;20036;-76
2021/01/04 08:24:43;;;;;;;12.38;8.05;;;;;;;11.19;73.60;93403.84;5045499;28;20496;-76
2021/01/04 08:27:17;;;;;;;12.80;7.97;;;;;;;11.23;73.34;93409.34;5027820;28;20396;-76
2021/01/04 08:30:01;;;;;;;12.25;7.60;;;;;;;11.33;73.22;93403.81;5023243;28;20044;-76
2021/01/04 08:32:30;;;;;;;9.88;7.00;;;;;;;11.30;72.61;93404.38;5038114;28;20048;-76
2021/01/04 08:35:29;;;;;;;13.55;8.02;;;;;;;11.25;72.64;93392.06;5020353;28;20041;-76
2021/01/04 08:38:13;;;;;;;8.82;7.38;;;;;;;11.33;72.41;93395.88;5034233;28;20060;-76
2021/01/04 08:41:02;;;;;;;12.77;7.45;;;;;;;11.39;72.09;93386.69;5046895;28;20027;-76
2021/01/04 08:43:38;;;;;;;13.88;7.70;;;;;;;11.35;71.97;93383.09;5030838;28;20044;-77
2021/01/04 08:46:14;;;;;;;10.77;7.75;;;;;;;11.30;72.08;93368.13;5048577;28;20036;-76
2021/01/04 08:48:42;;;;;;;10.88;7.55;;;;;;;11.28;71.83;93359.75;5031768;28;20056;-76
2021/01/04 08:51:12;;;;;;;11.27;6.72;;;;;;;11.32;71.85;93353.84;5046988;28;20060;-76
2021/01/04 08:53:39;;;;;;;13.13;6.95;;;;;;;11.28;71.44;93337.81;5045826;28;20113;-76
2021/01/04 08:56:28;;;;;;;9.70;6.35;;;;;;;11.40;71.11;93348.59;5027763;28;20400;-76
2021/01/04 08:59:09;;;;;;;9.77;6.30;;;;;;;11.40;71.22;93342.50;5047467;28;20021;-76
2021/01/04 09:01:35;;;;;;;12.13;7.97;;;;;;;11.43;70.92;93336.63;5046073;28;20028;-75
2021/01/04 09:04:10;;;;;;;12.25;7.70;;;;;;;11.52;70.77;93332.94;5041762;28;20036;-76
2021/01/04 09:06:47;;;;;;;11.07;7.00;;;;;;;11.60;70.38;93331.41;5024877;28;20064;-76
2021/01/04 09:09:30;;;;;;;16.05;8.00;;;;;;;11.71;70.12;93336.13;5023867;28;20896;-77
2021/01/04 09:12:17;;;;;;;7.78;6.78;;;;;;;11.77;69.37;93338.66;5025154;28;20041;-76
2021/01/04 09:14:55;;;;;;;10.77;6.78;;;;;;;11.83;69.37;93330.25;5042853;28;20123;-77
2021/01/04 09:17:38;;;;;;;11.05;7.13;;;;;;;11.81;68.82;93327.16;5031237;28;20032;-75
2021/01/04 09:20:09;;;;;;;8.95;6.50;;;;;;;11.89;68.47;93333.53;5047420;28;20045;-76
2021/01/04 09:22:35;;;;;;;11.68;7.43;;;;;;;11.86;68.39;93339.47;5052720;28;20562;-76
2021/01/04 09:25:01;;;;;;;10.20;7.15;;;;;;;11.89;68.84;93322.97;5048686;28;20044;-76
2021/01/04 09:27:35;;;;;;;9.55;8.38;;;;;;;12.00;68.26;93321.59;5046859;28;20397;-77
2021/01/04 09:30:08;;;;;;;13.82;8.60;;;;;;;12.05;68.15;93316.16;5051585;28;20032;-76
2021/01/04 09:32:42;;;;;;;13.95;9.63;;;;;;;12.03;67.51;93311.16;5030706;28;20463;-76
2021/01/04 09:35:16;;;;;;;10.93;7.40;;;;;;;12.04;67.54;93306.63;5045960;28;20416;-76
2021/01/04 09:37:42;;;;;;;10.80;8.65;;;;;;;12.08;67.29;93305.72;5049037;28;20205;-76
2021/01/04 09:40:16;;;;;;;11.80;8.00;;;;;;;12.06;66.87;93307.13;5051599;28;20489;-76
2021/01/04 09:42:42;;;;;;;14.27;9.02;;;;;;;12.16;67.56;93314.78;5028284;28;20635;-76
2021/01/04 09:45:13;;;;;;;12.00;8.30;;;;;;;12.24;67.42;93311.34;5050709;28;20028;-76
2021/01/04 09:47:46;;;;;;;11.98;8.07;;;;;;;12.37;66.68;93331.63;5032618;28;20083;-77
2021/01/04 09:50:41;;;;;;;12.50;8.55;;;;;;;12.45;65.94;93328.22;5049564;28;20112;-77
2021/01/04 09:53:20;;;;;;;8.18;7.38;;;;;;;12.43;65.06;93325.09;5043458;28;20714;-76
2021/01/04 09:55:47;;;;;;;10.43;8.23;;;;;;;12.40;64.98;93315.13;5053796;28;20021;-76
2021/01/04 09:58:18;;;;;;;11.32;7.68;;;;;;;12.41;64.86;93310.59;5052089;28;20575;-76
2021/01/04 10:00:45;;;;;;;12.10;8.30;;;;;;;12.51;64.51;93313.69;5050443;28;20563;-75
2021/01/04 10:03:11;;;;;;;16.38;10.40;;;;;;;12.52;64.73;93312.63;5048646;28;20051;-75
2021/01/04 10:05:42;;;;;;;10.95;8.30;;;;;;;12.47;64.68;93307.47;5049387;28;20041;-78
2021/01/04 10:08:12;;;;;;;11.88;9.38;;;;;;;12.58;64.70;93303.41;5052142;28;20044;-77
2021/01/04 10:10:41;;;;;;;11.95;8.65;;;;;;;12.56;64.45;93297.63;5036469;28;20048;-77
2021/01/04 10:13:10;;;;;;;11.13;8.60;;;;;;;12.62;64.73;93305.44;5049814;28;20032;-78
2021/01/04 10:15:36;;;;;;;10.82;8.85;;;;;;;12.59;64.49;93304.22;5047011;28;20123;-78
2021/01/04 10:18:15;;;;;;;16.65;9.43;;;;;;;12.69;65.15;93279.25;5035827;28;20698;-78
2021/01/04 10:20:48;;;;;;;14.25;10.15;;;;;;;12.79;64.33;93279.72;5049704;28;20040;-78
2021/01/04 10:23:22;;;;;;;10.90;9.13;;;;;;;12.80;64.62;93273.31;5048715;28;20033;-77
2021/01/04 10:25:52;;;;;;;18.25;9.60;;;;;;;12.78;64.64;93283.44;5050617;28;20032;-75
2021/01/04 10:28:17;;;;;;;10.27;8.85;;;;;;;12.80;64.30;93280.50;5051413;28;20528;-77
2021/01/04 10:30:43;;;;;;;14.10;10.07;;;;;;;12.89;64.82;93281.25;5051988;28;20060;-76
2021/01/04 10:33:21;;;;;;;13.07;9.77;;;;;;;12.99;65.11;93275.63;5052756;28;20047;-75
2021/01/04 10:35:58;;;;;;;12.20;10.30;;;;;;;13.06;64.99;93267.94;5036816;28;20035;-76
2021/01/04 10:38:23;;;;;;;16.55;10.38;;;;;;;13.14;64.83;93269.84;5019135;28;20069;-75
2021/01/04 10:40:50;;;;;;;28.27;17.20;;;;;;;13.10;64.91;93271.50;5053668;28;20028;-76
2021/01/04 10:43:19;;;;;;;29.23;17.25;;;;;;;13.07;64.90;93264.19;5050057;28;20012;-76
2021/01/04 10:45:44;;;;;;;14.43;11.88;;;;;;;13.02;65.72;93270.47;5055147;28;20044;-75
2021/01/04 10:48:17;;;;;;;14.95;12.48;;;;;;;12.82;66.89;93267.69;5033430;28;20582;-75
2021/01/04 10:50:43;;;;;;;15.73;11.68;;;;;;;12.71;67.00;93267.22;5046739;28;20451;-75
2021/01/04 10:53:13;;;;;;;20.48;12.43;;;;;;;12.62;67.24;93258.50;5031018;28;20089;-75
2021/01/04 10:56:01;;;;;;;14.77;12.45;;;;;;;12.66;67.53;93256.03;5035688;28;20032;-75
2021/01/04 10:58:36;;;;;;;15.10;11.10;;;;;;;12.75;66.98;93246.97;5039517;28;20113;-75
2021/01/04 11:01:13;;;;;;;18.02;13.07;;;;;;;12.83;66.93;93237.44;5028399;28;20631;-76
2021/01/04 11:04:04;;;;;;;18.92;12.65;;;;;;;12.92;66.58;93224.94;5027178;28;20041;-77
2021/01/04 11:06:37;;;;;;;17.58;13.20;;;;;;;12.92;66.39;93220.41;5030240;28;20049;-77
2021/01/04 11:09:26;;;;;;;16.42;11.95;;;;;;;12.91;67.07;93212.75;5030813;28;20036;-78
2021/01/04 11:12:14;;;;;;;16.25;12.27;;;;;;;12.99;66.90;93215.41;5029788;28;20033;-77
2021/01/04 11:14:58;;;;;;;15.55;12.32;;;;;;;12.97;66.85;93200.88;5030586;28;20124;-77
2021/01/04 11:17:34;;;;;;;19.27;11.75;;;;;;;12.98;66.99;93192.63;5043212;28;20037;-77
2021/01/04 11:20:11;;;;;;;17.63;12.98;;;;;;;12.96;67.28;93188.72;5030491;28;20030;-77
2021/01/04 11:22:37;;;;;;;14.35;10.93;;;;;;;12.84;67.07;93186.75;5032858;28;20090;-77
2021/01/04 11:25:04;;;;;;;16.73;11.05;;;;;;;12.78;67.32;93184.56;5030766;28;20041;-77
2021/01/04 11:27:29;;;;;;;12.70;10.63;;;;;;;12.78;67.72;93176.63;5027275;28;20045;-77
2021/01/04 11:29:55;;;;;;;15.85;11.45;;;;;;;12.62;67.75;93164.94;5030228;28;20033;-77
2021/01/04 11:32:22;;;;;;;15.40;11.40;;;;;;;12.65;68.36;93170.44;5025319;28;20044;-76
2021/01/04 11:34:50;;;;;;;14.00;12.25;;;;;;;12.57;68.81;93164.03;5043888;28;20019;-76
2021/01/04 11:37:18;;;;;;;20.15;13.60;;;;;;;12.56;68.44;93159.81;5028572;28;20150;-75
2021/01/04 11:39:43;;;;;;;17.95;13.77;;;;;;;12.25;68.05;93132.78;5042248;28;20041;-75
2021/01/04 11:42:09;;;;;;;14.30;10.25;;;;;;;12.21;68.10;93145.09;5029777;28;20041;-75
2021/01/04 11:44:35;;;;;;;13.57;9.60;;;;;;;12.18;68.50;93127.16;5034347;28;20076;-75
2021/01/04 11:47:01;;;;;;;13.65;9.75;;;;;;;12.03;69.43;93114.41;5052043;28;20097;-75
2021/01/04 11:49:28;;;;;;;11.88;9.73;;;;;;;11.96;69.95;93130.00;5050702;28;20498;-75
2021/01/04 11:51:54;;;;;;;13.60;11.13;;;;;;;11.77;71.39;93105.72;5049081;28;20036;-75
2021/01/04 11:54:19;;;;;;;17.50;11.95;;;;;;;11.80;72.43;93097.16;5049929;28;20437;-75
2021/01/04 11:56:46;;;;;;;20.02;12.63;;;;;;;11.82;72.72;93081.75;5050135;28;20047;-76
2021/01/04 11:59:12;;;;;;;18.33;11.65;;;;;;;11.67;72.42;93067.09;5049038;28;20046;-74
2021/01/04 12:01:38;;;;;;;17.45;12.57;;;;;;;11.65;72.91;93053.38;5050369;28;20036;-78
2021/01/04 12:04:04;;;;;;;18.08;12.20;;;;;;;11.62;73.18;93049.50;5046535;28;20033;-76
2021/01/04 12:06:30;;;;;;;14.10;10.85;;;;;;;11.63;73.07;93074.09;5047428;28;20083;-78